Terminal Aerodrome Forecast
Issued by NWS

Current Version | Previous Version | Text Only | Print | Product List | Glossary On
Versions: 1 2 3 4 5 6 7 8 9 10 11 12 13 14
000
FTUS42 KMHX 271804 AAA
TAFPGV
TAF AMD
KPGV 271804Z 2718/2818 28006KT 6SM -RA SCT010 SCT020
     FM271815 19009KT P6SM VCTS SCT030CB BKN040
     FM280200 18008KT P6SM BKN050
     FM280600 VRB04KT P6SM BKN050 BKN130
      AMD LTD TO CLD VIS AND WIND=

USA.gov is the U.S. government's official web portal to all federal, state and local government web resources and services.